sensor_id;sensor_type;location;lat;lon;timestamp;temperature;humidity
13198;DHT22;6664;52.514;13.440;2023-05-10T00:01:32;11.10;5.10
13198;DHT22;6664;52.514;13.440;2023-05-10T00:04:17;11.10;5.20
13198;DHT22;6664;52.514;13.440;2023-05-10T00:07:04;11.00;5.40
13198;DHT22;6664;52.514;13.440;2023-05-10T00:09:49;11.00;5.70
13198;DHT22;6664;52.514;13.440;2023-05-10T00:12:37;11.00;5.70
13198;DHT22;6664;52.514;13.440;2023-05-10T00:15:25;11.10;6.10
13198;DHT22;6664;52.514;13.440;2023-05-10T00:18:11;11.00;6.00
13198;DHT22;6664;52.514;13.440;2023-05-10T00:20:59;11.00;6.00
13198;DHT22;6664;52.514;13.440;2023-05-10T00:23:45;10.80;6.40
13198;DHT22;6664;52.514;13.440;2023-05-10T00:26:30;10.90;6.90
13198;DHT22;6664;52.514;13.440;2023-05-10T00:29:17;10.80;6.30
13198;DHT22;6664;52.514;13.440;2023-05-10T00:32:03;10.90;6.20
13198;DHT22;6664;52.514;13.440;2023-05-10T00:34:51;10.90;6.30
13198;DHT22;6664;52.514;13.440;2023-05-10T00:37:37;10.80;6.10
13198;DHT22;6664;52.514;13.440;2023-05-10T00:40:22;10.80;6.30
13198;DHT22;6664;52.514;13.440;2023-05-10T00:43:08;10.70;6.30
13198;DHT22;6664;52.514;13.440;2023-05-10T00:45:55;10.70;6.40
13198;DHT22;6664;52.514;13.440;2023-05-10T00:48:41;10.60;6.80
13198;DHT22;6664;52.514;13.440;2023-05-10T00:51:27;10.60;6.70
13198;DHT22;6664;52.514;13.440;2023-05-10T00:54:15;10.50;6.80
13198;DHT22;6664;52.514;13.440;2023-05-10T00:57:03;10.40;7.10
13198;DHT22;6664;52.514;13.440;2023-05-10T00:59:49;10.40;7.60
13198;DHT22;6664;52.514;13.440;2023-05-10T01:02:34;10.40;7.90
13198;DHT22;6664;52.514;13.440;2023-05-10T01:05:20;10.50;7.70
13198;DHT22;6664;52.514;13.440;2023-05-10T01:08:08;10.30;7.80
13198;DHT22;6664;52.514;13.440;2023-05-10T01:10:54;10.20;8.10
13198;DHT22;6664;52.514;13.440;2023-05-10T01:13:42;10.20;8.30
13198;DHT22;6664;52.514;13.440;2023-05-10T01:16:33;10.00;8.50
13198;DHT22;6664;52.514;13.440;2023-05-10T01:19:28;10.00;8.50
13198;DHT22;6664;52.514;13.440;2023-05-10T01:37:50;9.70;10.70
13198;DHT22;6664;52.514;13.440;2023-05-10T01:47:15;9.70;11.20
13198;DHT22;6664;52.514;13.440;2023-05-10T01:50:05;9.70;11.40
13198;DHT22;6664;52.514;13.440;2023-05-10T01:52:54;9.70;11.60
13198;DHT22;6664;52.514;13.440;2023-05-10T01:55:47;9.60;11.40
13198;DHT22;6664;52.514;13.440;2023-05-10T01:58:36;9.50;11.70
13198;DHT22;6664;52.514;13.440;2023-05-10T02:01:29;9.50;11.90
13198;DHT22;6664;52.514;13.440;2023-05-10T02:04:18;9.30;12.30
13198;DHT22;6664;52.514;13.440;2023-05-10T02:07:05;9.30;12.40
13198;DHT22;6664;52.514;13.440;2023-05-10T02:09:51;9.30;12.30
13198;DHT22;6664;52.514;13.440;2023-05-10T02:12:47;9.30;12.60
13198;DHT22;6664;52.514;13.440;2023-05-10T02:15:37;9.30;12.60
13198;DHT22;6664;52.514;13.440;2023-05-10T02:18:26;9.30;13.20
13198;DHT22;6664;52.514;13.440;2023-05-10T02:21:13;9.30;12.50
13198;DHT22;6664;52.514;13.440;2023-05-10T02:24:01;9.40;13.00
13198;DHT22;6664;52.514;13.440;2023-05-10T02:26:48;9.30;12.70
13198;DHT22;6664;52.514;13.440;2023-05-10T02:29:35;9.20;12.90
13198;DHT22;6664;52.514;13.440;2023-05-10T02:32:22;9.10;13.20
13198;DHT22;6664;52.514;13.440;2023-05-10T02:35:10;9.20;13.30
13198;DHT22;6664;52.514;13.440;2023-05-10T02:37:57;9.10;13.20
13198;DHT22;6664;52.514;13.440;2023-05-10T02:40:49;9.20;13.30
13198;DHT22;6664;52.514;13.440;2023-05-10T02:43:37;9.10;13.20
13198;DHT22;6664;52.514;13.440;2023-05-10T02:46:24;9.10;13.20
13198;DHT22;6664;52.514;13.440;2023-05-10T02:49:10;9.10;13.20
13198;DHT22;6664;52.514;13.440;2023-05-10T02:52:00;9.10;13.20
13198;DHT22;6664;52.514;13.440;2023-05-10T02:54:50;9.00;13.20
13198;DHT22;6664;52.514;13.440;2023-05-10T02:57:41;9.00;13.20
13198;DHT22;6664;52.514;13.440;2023-05-10T03:00:27;8.90;13.60
13198;DHT22;6664;52.514;13.440;2023-05-10T03:03:15;8.80;13.70
13198;DHT22;6664;52.514;13.440;2023-05-10T03:06:00;8.90;13.90
13198;DHT22;6664;52.514;13.440;2023-05-10T03:08:46;8.90;13.80
13198;DHT22;6664;52.514;13.440;2023-05-10T03:11:55;8.90;13.90
13198;DHT22;6664;52.514;13.440;2023-05-10T03:14:59;9.00;13.70
13198;DHT22;6664;52.514;13.440;2023-05-10T03:20:54;8.80;13.70
13198;DHT22;6664;52.514;13.440;2023-05-10T03:24:07;8.70;14.00
13198;DHT22;6664;52.514;13.440;2023-05-10T03:26:56;8.70;14.40
13198;DHT22;6664;52.514;13.440;2023-05-10T03:29:43;8.80;14.20
13198;DHT22;6664;52.514;13.440;2023-05-10T03:32:29;8.80;14.00
13198;DHT22;6664;52.514;13.440;2023-05-10T03:35:17;8.70;14.10
13198;DHT22;6664;52.514;13.440;2023-05-10T03:38:03;8.70;13.90
13198;DHT22;6664;52.514;13.440;2023-05-10T03:40:48;8.70;14.00
13198;DHT22;6664;52.514;13.440;2023-05-10T03:43:34;8.80;14.10
13198;DHT22;6664;52.514;13.440;2023-05-10T03:46:19;8.70;14.00
13198;DHT22;6664;52.514;13.440;2023-05-10T03:49:05;8.80;14.20
13198;DHT22;6664;52.514;13.440;2023-05-10T03:51:50;8.80;14.30
13198;DHT22;6664;52.514;13.440;2023-05-10T03:54:35;8.80;14.00
13198;DHT22;6664;52.514;13.440;2023-05-10T03:57:21;8.80;14.00
13198;DHT22;6664;52.514;13.440;2023-05-10T04:00:07;8.90;13.70
13198;DHT22;6664;52.514;13.440;2023-05-10T04:02:53;8.90;13.80
13198;DHT22;6664;52.514;13.440;2023-05-10T04:05:38;9.00;13.50
13198;DHT22;6664;52.514;13.440;2023-05-10T04:08:24;9.00;13.20
13198;DHT22;6664;52.514;13.440;2023-05-10T04:11:11;9.00;13.10
13198;DHT22;6664;52.514;13.440;2023-05-10T04:13:57;9.00;13.30
13198;DHT22;6664;52.514;13.440;2023-05-10T04:16:43;9.10;13.20
13198;DHT22;6664;52.514;13.440;2023-05-10T04:19:30;9.10;13.20
13198;DHT22;6664;52.514;13.440;2023-05-10T04:22:15;9.10;13.20
13198;DHT22;6664;52.514;13.440;2023-05-10T04:25:04;9.10;13.20
13198;DHT22;6664;52.514;13.440;2023-05-10T04:27:49;9.10;13.20
13198;DHT22;6664;52.514;13.440;2023-05-10T04:30:35;9.10;13.20
13198;DHT22;6664;52.514;13.440;2023-05-10T04:33:20;9.20;13.20
13198;DHT22;6664;52.514;13.440;2023-05-10T04:36:08;9.30;12.70
13198;DHT22;6664;52.514;13.440;2023-05-10T04:38:54;9.30;12.40
13198;DHT22;6664;52.514;13.440;2023-05-10T04:41:41;9.40;12.40
13198;DHT22;6664;52.514;13.440;2023-05-10T04:44:29;9.50;12.00
13198;DHT22;6664;52.514;13.440;2023-05-10T04:47:18;9.60;12.30
13198;DHT22;6664;52.514;13.440;2023-05-10T04:50:06;9.60;11.90
13198;DHT22;6664;52.514;13.440;2023-05-10T04:52:52;9.80;11.40
13198;DHT22;6664;52.514;13.440;2023-05-10T04:55:37;9.80;11.40
13198;DHT22;6664;52.514;13.440;2023-05-10T04:58:25;9.90;11.30
13198;DHT22;6664;52.514;13.440;2023-05-10T05:01:11;10.00;10.20
13198;DHT22;6664;52.514;13.440;2023-05-10T05:03:56;10.00;10.20
13198;DHT22;6664;52.514;13.440;2023-05-10T05:06:42;10.20;9.90
13198;DHT22;6664;52.514;13.440;2023-05-10T05:09:28;10.20;9.60
13198;DHT22;6664;52.514;13.440;2023-05-10T05:12:13;10.30;9.70
13198;DHT22;6664;52.514;13.440;2023-05-10T05:15:00;10.40;9.40
13198;DHT22;6664;52.514;13.440;2023-05-10T05:17:45;10.40;9.20
13198;DHT22;6664;52.514;13.440;2023-05-10T05:20:34;10.50;9.10
13198;DHT22;6664;52.514;13.440;2023-05-10T05:23:20;10.40;9.30
13198;DHT22;6664;52.514;13.440;2023-05-10T05:26:05;10.60;9.00
13198;DHT22;6664;52.514;13.440;2023-05-10T05:28:53;10.60;9.00
13198;DHT22;6664;52.514;13.440;2023-05-10T05:31:39;10.70;9.00
13198;DHT22;6664;52.514;13.440;2023-05-10T05:34:25;10.80;9.10
13198;DHT22;6664;52.514;13.440;2023-05-10T05:37:18;10.90;8.80
13198;DHT22;6664;52.514;13.440;2023-05-10T05:40:07;11.00;8.40
13198;DHT22;6664;52.514;13.440;2023-05-10T05:42:52;11.10;8.30
13198;DHT22;6664;52.514;13.440;2023-05-10T05:45:38;11.10;8.30
13198;DHT22;6664;52.514;13.440;2023-05-10T05:48:23;11.20;8.10
13198;DHT22;6664;52.514;13.440;2023-05-10T05:51:09;11.20;8.20
13198;DHT22;6664;52.514;13.440;2023-05-10T05:53:59;11.30;7.90
13198;DHT22;6664;52.514;13.440;2023-05-10T05:56:48;11.40;7.70
13198;DHT22;6664;52.514;13.440;2023-05-10T05:59:34;11.60;7.60
13198;DHT22;6664;52.514;13.440;2023-05-10T06:02:22;11.70;7.30
13198;DHT22;6664;52.514;13.440;2023-05-10T06:05:08;11.90;6.70
13198;DHT22;6664;52.514;13.440;2023-05-10T06:07:54;11.80;6.80
13198;DHT22;6664;52.514;13.440;2023-05-10T06:10:39;12.00;6.40
13198;DHT22;6664;52.514;13.440;2023-05-10T06:13:25;12.10;6.40
13198;DHT22;6664;52.514;13.440;2023-05-10T06:16:13;12.30;5.80
13198;DHT22;6664;52.514;13.440;2023-05-10T06:18:59;12.30;5.80
13198;DHT22;6664;52.514;13.440;2023-05-10T06:21:46;12.40;5.70
13198;DHT22;6664;52.514;13.440;2023-05-10T06:24:32;12.50;5.60
13198;DHT22;6664;52.514;13.440;2023-05-10T06:27:18;12.60;5.00
13198;DHT22;6664;52.514;13.440;2023-05-10T06:30:04;12.60;5.40
13198;DHT22;6664;52.514;13.440;2023-05-10T06:32:57;12.80;4.90
13198;DHT22;6664;52.514;13.440;2023-05-10T06:35:42;12.80;5.20
13198;DHT22;6664;52.514;13.440;2023-05-10T06:38:28;12.90;5.00
13198;DHT22;6664;52.514;13.440;2023-05-10T06:41:13;13.00;4.40
13198;DHT22;6664;52.514;13.440;2023-05-10T06:43:59;13.00;4.50
13198;DHT22;6664;52.514;13.440;2023-05-10T06:46:44;13.00;4.50
13198;DHT22;6664;52.514;13.440;2023-05-10T06:49:32;13.10;4.70
13198;DHT22;6664;52.514;13.440;2023-05-10T06:52:21;13.10;4.30
13198;DHT22;6664;52.514;13.440;2023-05-10T06:55:09;13.30;4.00
13198;DHT22;6664;52.514;13.440;2023-05-10T06:57:57;13.40;3.80
13198;DHT22;6664;52.514;13.440;2023-05-10T07:00:43;13.40;3.90
13198;DHT22;6664;52.514;13.440;2023-05-10T07:03:33;13.50;3.60
13198;DHT22;6664;52.514;13.440;2023-05-10T07:06:18;13.40;3.90
13198;DHT22;6664;52.514;13.440;2023-05-10T07:09:18;13.40;3.90
13198;DHT22;6664;52.514;13.440;2023-05-10T07:12:05;13.60;4.00
13198;DHT22;6664;52.514;13.440;2023-05-10T07:14:56;13.60;3.50
13198;DHT22;6664;52.514;13.440;2023-05-10T07:17:43;13.60;3.70
13198;DHT22;6664;52.514;13.440;2023-05-10T07:20:31;13.70;3.40
13198;DHT22;6664;52.514;13.440;2023-05-10T07:23:17;13.80;3.40
13198;DHT22;6664;52.514;13.440;2023-05-10T07:26:06;13.90;3.00
13198;DHT22;6664;52.514;13.440;2023-05-10T07:28:52;14.00;2.90
13198;DHT22;6664;52.514;13.440;2023-05-10T07:31:37;14.10;2.80
13198;DHT22;6664;52.514;13.440;2023-05-10T07:34:23;14.10;2.70
13198;DHT22;6664;52.514;13.440;2023-05-10T07:37:08;14.10;2.50
13198;DHT22;6664;52.514;13.440;2023-05-10T07:39:54;14.20;2.20
13198;DHT22;6664;52.514;13.440;2023-05-10T07:42:39;14.30;2.80
13198;DHT22;6664;52.514;13.440;2023-05-10T07:45:25;14.40;2.60
13198;DHT22;6664;52.514;13.440;2023-05-10T07:48:10;14.40;2.30
13198;DHT22;6664;52.514;13.440;2023-05-10T07:50:57;14.50;2.10
13198;DHT22;6664;52.514;13.440;2023-05-10T07:53:43;14.50;2.20
13198;DHT22;6664;52.514;13.440;2023-05-10T07:56:31;14.60;2.20
13198;DHT22;6664;52.514;13.440;2023-05-10T07:59:17;14.70;2.30
13198;DHT22;6664;52.514;13.440;2023-05-10T08:02:04;14.80;2.40
13198;DHT22;6664;52.514;13.440;2023-05-10T08:04:52;14.80;1.70
13198;DHT22;6664;52.514;13.440;2023-05-10T08:07:38;14.90;1.60
13198;DHT22;6664;52.514;13.440;2023-05-10T08:10:24;14.90;1.60
13198;DHT22;6664;52.514;13.440;2023-05-10T08:13:10;15.00;1.10
13198;DHT22;6664;52.514;13.440;2023-05-10T08:15:58;15.00;1.40
13198;DHT22;6664;52.514;13.440;2023-05-10T08:18:45;15.00;1.50
13198;DHT22;6664;52.514;13.440;2023-05-10T08:21:34;15.10;1.60
13198;DHT22;6664;52.514;13.440;2023-05-10T08:24:21;15.20;1.00
13198;DHT22;6664;52.514;13.440;2023-05-10T08:27:07;15.20;1.00
13198;DHT22;6664;52.514;13.440;2023-05-10T08:29:53;15.30;1.00
13198;DHT22;6664;52.514;13.440;2023-05-10T08:32:39;15.30;1.20
13198;DHT22;6664;52.514;13.440;2023-05-10T08:35:27;15.40;1.80
13198;DHT22;6664;52.514;13.440;2023-05-10T08:38:14;15.50;1.00
13198;DHT22;6664;52.514;13.440;2023-05-10T08:41:00;15.50;1.00
13198;DHT22;6664;52.514;13.440;2023-05-10T08:43:47;15.60;1.00
13198;DHT22;6664;52.514;13.440;2023-05-10T08:46:34;15.60;1.00
13198;DHT22;6664;52.514;13.440;2023-05-10T08:49:21;15.80;1.00
13198;DHT22;6664;52.514;13.440;2023-05-10T08:52:08;15.80;1.00
13198;DHT22;6664;52.514;13.440;2023-05-10T08:54:57;15.90;1.00
13198;DHT22;6664;52.514;13.440;2023-05-10T08:57:43;15.90;1.00
13198;DHT22;6664;52.514;13.440;2023-05-10T09:00:28;16.00;1.00
13198;DHT22;6664;52.514;13.440;2023-05-10T09:03:14;16.00;1.00
13198;DHT22;6664;52.514;13.440;2023-05-10T09:06:04;16.00;1.00
13198;DHT22;6664;52.514;13.440;2023-05-10T09:08:50;16.10;1.00
13198;DHT22;6664;52.514;13.440;2023-05-10T09:11:35;16.20;1.00
13198;DHT22;6664;52.514;13.440;2023-05-10T09:14:23;16.30;1.00
13198;DHT22;6664;52.514;13.440;2023-05-10T09:17:10;16.30;1.00
13198;DHT22;6664;52.514;13.440;2023-05-10T09:19:59;16.30;1.00
13198;DHT22;6664;52.514;13.440;2023-05-10T09:22:45;16.40;1.00
13198;DHT22;6664;52.514;13.440;2023-05-10T09:25:30;16.50;1.00
13198;DHT22;6664;52.514;13.440;2023-05-10T09:28:18;16.60;1.00
13198;DHT22;6664;52.514;13.440;2023-05-10T09:31:03;16.70;1.00
13198;DHT22;6664;52.514;13.440;2023-05-10T09:33:50;16.70;1.00
13198;DHT22;6664;52.514;13.440;2023-05-10T09:36:38;16.80;1.00
13198;DHT22;6664;52.514;13.440;2023-05-10T09:39:36;16.90;1.00
13198;DHT22;6664;52.514;13.440;2023-05-10T09:42:22;17.00;1.00
13198;DHT22;6664;52.514;13.440;2023-05-10T09:45:12;17.10;1.00
13198;DHT22;6664;52.514;13.440;2023-05-10T09:48:01;17.20;1.00
13198;DHT22;6664;52.514;13.440;2023-05-10T09:50:56;17.20;1.00
13198;DHT22;6664;52.514;13.440;2023-05-10T09:53:47;17.30;1.00
13198;DHT22;6664;52.514;13.440;2023-05-10T09:56:36;17.40;1.00
13198;DHT22;6664;52.514;13.440;2023-05-10T09:59:28;17.40;1.00
13198;DHT22;6664;52.514;13.440;2023-05-10T10:02:16;17.40;1.00
13198;DHT22;6664;52.514;13.440;2023-05-10T10:05:02;17.50;1.00
13198;DHT22;6664;52.514;13.440;2023-05-10T10:07:49;17.60;1.00
13198;DHT22;6664;52.514;13.440;2023-05-10T10:10:35;17.60;1.00
13198;DHT22;6664;52.514;13.440;2023-05-10T10:13:22;17.90;1.00
13198;DHT22;6664;52.514;13.440;2023-05-10T10:16:10;18.00;1.00
13198;DHT22;6664;52.514;13.440;2023-05-10T10:18:59;18.20;1.00
13198;DHT22;6664;52.514;13.440;2023-05-10T10:21:47;18.20;1.00
13198;DHT22;6664;52.514;13.440;2023-05-10T10:24:35;18.30;1.00
13198;DHT22;6664;52.514;13.440;2023-05-10T10:27:28;18.30;1.00
13198;DHT22;6664;52.514;13.440;2023-05-10T10:30:29;18.40;1.00
13198;DHT22;6664;52.514;13.440;2023-05-10T10:33:51;18.60;1.00
13198;DHT22;6664;52.514;13.440;2023-05-10T10:36:47;18.70;1.00
13198;DHT22;6664;52.514;13.440;2023-05-10T10:39:33;18.80;1.00
13198;DHT22;6664;52.514;13.440;2023-05-10T10:42:56;18.90;1.00
13198;DHT22;6664;52.514;13.440;2023-05-10T10:45:42;19.00;1.00
13198;DHT22;6664;52.514;13.440;2023-05-10T10:48:29;19.10;1.00
13198;DHT22;6664;52.514;13.440;2023-05-10T10:51:15;19.30;1.00
13198;DHT22;6664;52.514;13.440;2023-05-10T10:54:09;19.30;1.00
13198;DHT22;6664;52.514;13.440;2023-05-10T10:57:14;19.50;1.00
13198;DHT22;6664;52.514;13.440;2023-05-10T11:05:58;19.80;1.00
13198;DHT22;6664;52.514;13.440;2023-05-10T11:08:44;19.80;1.00
13198;DHT22;6664;52.514;13.440;2023-05-10T11:11:34;20.00;1.00
13198;DHT22;6664;52.514;13.440;2023-05-10T11:14:21;20.20;1.00
13198;DHT22;6664;52.514;13.440;2023-05-10T11:17:26;20.30;1.00
13198;DHT22;6664;52.514;13.440;2023-05-10T11:20:14;20.40;1.00
13198;DHT22;6664;52.514;13.440;2023-05-10T11:23:14;20.50;1.00
13198;DHT22;6664;52.514;13.440;2023-05-10T11:26:01;20.50;1.00
13198;DHT22;6664;52.514;13.440;2023-05-10T11:28:47;20.50;1.00
13198;DHT22;6664;52.514;13.440;2023-05-10T11:31:34;20.70;1.00
13198;DHT22;6664;52.514;13.440;2023-05-10T11:34:30;20.80;1.00
13198;DHT22;6664;52.514;13.440;2023-05-10T11:37:18;21.00;1.00
13198;DHT22;6664;52.514;13.440;2023-05-10T11:40:04;21.10;1.00
13198;DHT22;6664;52.514;13.440;2023-05-10T11:42:49;21.20;1.00
13198;DHT22;6664;52.514;13.440;2023-05-10T11:45:41;21.20;1.00
13198;DHT22;6664;52.514;13.440;2023-05-10T11:48:26;21.40;1.00
13198;DHT22;6664;52.514;13.440;2023-05-10T11:51:12;21.40;1.00
13198;DHT22;6664;52.514;13.440;2023-05-10T11:53:58;21.40;1.00
13198;DHT22;6664;52.514;13.440;2023-05-10T11:56:43;21.50;1.00
13198;DHT22;6664;52.514;13.440;2023-05-10T11:59:30;21.60;1.00
13198;DHT22;6664;52.514;13.440;2023-05-10T12:02:18;21.70;1.00
13198;DHT22;6664;52.514;13.440;2023-05-10T12:05:05;21.80;1.00
13198;DHT22;6664;52.514;13.440;2023-05-10T12:08:14;21.90;1.00
13198;DHT22;6664;52.514;13.440;2023-05-10T12:11:11;22.10;1.00
13198;DHT22;6664;52.514;13.440;2023-05-10T12:14:00;22.30;1.00
13198;DHT22;6664;52.514;13.440;2023-05-10T12:16:51;22.70;1.00
13198;DHT22;6664;52.514;13.440;2023-05-10T12:19:38;23.00;1.00
13198;DHT22;6664;52.514;13.440;2023-05-10T12:22:27;23.80;1.00
13198;DHT22;6664;52.514;13.440;2023-05-10T12:25:12;24.40;1.00
13198;DHT22;6664;52.514;13.440;2023-05-10T12:27:59;25.60;1.00
13198;DHT22;6664;52.514;13.440;2023-05-10T12:30:48;27.10;1.00
13198;DHT22;6664;52.514;13.440;2023-05-10T12:36:27;38.30;1.00
13198;DHT22;6664;52.514;13.440;2023-05-10T12:39:12;40.60;1.00
13198;DHT22;6664;52.514;13.440;2023-05-10T12:41:58;42.00;1.00
13198;DHT22;6664;52.514;13.440;2023-05-10T12:44:43;42.90;1.00
13198;DHT22;6664;52.514;13.440;2023-05-10T12:47:32;44.20;1.00
13198;DHT22;6664;52.514;13.440;2023-05-10T12:50:19;45.70;1.00
13198;DHT22;6664;52.514;13.440;2023-05-10T12:53:04;47.30;1.00
13198;DHT22;6664;52.514;13.440;2023-05-10T12:55:50;46.50;1.00
13198;DHT22;6664;52.514;13.440;2023-05-10T12:58:37;47.90;1.00
13198;DHT22;6664;52.514;13.440;2023-05-10T13:01:24;48.70;1.00
13198;DHT22;6664;52.514;13.440;2023-05-10T13:04:09;51.50;1.00
13198;DHT22;6664;52.514;13.440;2023-05-10T13:06:55;54.30;1.00
13198;DHT22;6664;52.514;13.440;2023-05-10T13:09:46;56.50;1.00
13198;DHT22;6664;52.514;13.440;2023-05-10T13:12:32;57.00;1.00
13198;DHT22;6664;52.514;13.440;2023-05-10T13:15:18;58.40;1.00
13198;DHT22;6664;52.514;13.440;2023-05-10T13:18:06;59.40;1.00
13198;DHT22;6664;52.514;13.440;2023-05-10T13:20:51;58.80;1.00
13198;DHT22;6664;52.514;13.440;2023-05-10T13:23:39;58.00;1.00
13198;DHT22;6664;52.514;13.440;2023-05-10T13:26:24;57.60;1.00
13198;DHT22;6664;52.514;13.440;2023-05-10T13:29:10;57.00;1.00
13198;DHT22;6664;52.514;13.440;2023-05-10T13:31:56;58.50;1.00
13198;DHT22;6664;52.514;13.440;2023-05-10T13:34:46;58.80;1.00
13198;DHT22;6664;52.514;13.440;2023-05-10T13:37:34;56.30;1.00
13198;DHT22;6664;52.514;13.440;2023-05-10T13:40:22;57.10;1.00
13198;DHT22;6664;52.514;13.440;2023-05-10T13:43:07;57.10;1.00
13198;DHT22;6664;52.514;13.440;2023-05-10T13:45:53;57.50;1.00
13198;DHT22;6664;52.514;13.440;2023-05-10T13:48:39;57.50;1.00
13198;DHT22;6664;52.514;13.440;2023-05-10T13:51:24;55.00;1.00
13198;DHT22;6664;52.514;13.440;2023-05-10T13:54:09;53.70;1.00
13198;DHT22;6664;52.514;13.440;2023-05-10T13:56:57;55.40;1.00
13198;DHT22;6664;52.514;13.440;2023-05-10T13:59:44;49.70;1.00
13198;DHT22;6664;52.514;13.440;2023-05-10T14:02:29;51.90;1.00
13198;DHT22;6664;52.514;13.440;2023-05-10T14:05:15;54.20;1.00
13198;DHT22;6664;52.514;13.440;2023-05-10T14:08:04;54.50;1.00
13198;DHT22;6664;52.514;13.440;2023-05-10T14:10:49;52.50;1.00
13198;DHT22;6664;52.514;13.440;2023-05-10T14:13:36;52.70;1.00
13198;DHT22;6664;52.514;13.440;2023-05-10T14:16:22;49.40;1.00
13198;DHT22;6664;52.514;13.440;2023-05-10T14:19:07;49.00;1.00
13198;DHT22;6664;52.514;13.440;2023-05-10T14:21:55;50.00;1.00
13198;DHT22;6664;52.514;13.440;2023-05-10T14:24:41;48.20;1.00
13198;DHT22;6664;52.514;13.440;2023-05-10T14:27:26;48.90;1.00
13198;DHT22;6664;52.514;13.440;2023-05-10T14:30:12;50.50;1.00
13198;DHT22;6664;52.514;13.440;2023-05-10T14:32:58;50.70;1.00
13198;DHT22;6664;52.514;13.440;2023-05-10T14:35:44;48.70;1.00
13198;DHT22;6664;52.514;13.440;2023-05-10T14:38:30;44.80;1.00
13198;DHT22;6664;52.514;13.440;2023-05-10T14:41:16;42.00;1.00
13198;DHT22;6664;52.514;13.440;2023-05-10T14:44:03;39.80;1.00
13198;DHT22;6664;52.514;13.440;2023-05-10T14:46:51;38.30;1.00
13198;DHT22;6664;52.514;13.440;2023-05-10T14:49:37;36.70;1.00
13198;DHT22;6664;52.514;13.440;2023-05-10T14:52:22;36.90;1.00
13198;DHT22;6664;52.514;13.440;2023-05-10T14:55:08;36.20;1.00
13198;DHT22;6664;52.514;13.440;2023-05-10T14:57:53;37.50;1.00
13198;DHT22;6664;52.514;13.440;2023-05-10T15:00:42;37.30;1.00
13198;DHT22;6664;52.514;13.440;2023-05-10T15:03:32;36.10;1.00
13198;DHT22;6664;52.514;13.440;2023-05-10T15:06:23;34.70;1.00
13198;DHT22;6664;52.514;13.440;2023-05-10T15:09:12;33.50;1.00
13198;DHT22;6664;52.514;13.440;2023-05-10T15:11:57;32.60;1.00
13198;DHT22;6664;52.514;13.440;2023-05-10T15:14:43;32.10;1.00
13198;DHT22;6664;52.514;13.440;2023-05-10T15:17:28;30.60;1.00
13198;DHT22;6664;52.514;13.440;2023-05-10T15:20:16;31.00;1.00
13198;DHT22;6664;52.514;13.440;2023-05-10T15:23:01;32.30;1.00
13198;DHT22;6664;52.514;13.440;2023-05-10T15:25:47;30.40;1.00
13198;DHT22;6664;52.514;13.440;2023-05-10T15:28:34;28.90;1.00
13198;DHT22;6664;52.514;13.440;2023-05-10T15:31:22;28.00;1.00
13198;DHT22;6664;52.514;13.440;2023-05-10T15:34:08;27.50;1.00
13198;DHT22;6664;52.514;13.440;2023-05-10T15:36:56;27.00;1.00
13198;DHT22;6664;52.514;13.440;2023-05-10T15:39:42;26.60;1.00
13198;DHT22;6664;52.514;13.440;2023-05-10T15:42:28;26.50;1.00
13198;DHT22;6664;52.514;13.440;2023-05-10T15:45:13;27.10;1.00
13198;DHT22;6664;52.514;13.440;2023-05-10T15:47:59;26.70;1.00
13198;DHT22;6664;52.514;13.440;2023-05-10T15:50:44;27.60;1.00
13198;DHT22;6664;52.514;13.440;2023-05-10T15:53:30;26.40;1.00
13198;DHT22;6664;52.514;13.440;2023-05-10T15:56:21;25.90;1.00
13198;DHT22;6664;52.514;13.440;2023-05-10T15:59:07;25.60;1.00
13198;DHT22;6664;52.514;13.440;2023-05-10T16:01:56;25.40;1.00
13198;DHT22;6664;52.514;13.440;2023-05-10T16:04:42;25.60;1.00
13198;DHT22;6664;52.514;13.440;2023-05-10T16:07:28;26.20;1.00
13198;DHT22;6664;52.514;13.440;2023-05-10T16:10:18;28.50;1.00
13198;DHT22;6664;52.514;13.440;2023-05-10T16:13:04;28.10;1.00
13198;DHT22;6664;52.514;13.440;2023-05-10T16:15:49;27.70;1.00
13198;DHT22;6664;52.514;13.440;2023-05-10T16:18:35;28.10;1.00
13198;DHT22;6664;52.514;13.440;2023-05-10T16:21:21;27.80;1.00
13198;DHT22;6664;52.514;13.440;2023-05-10T16:24:11;26.80;1.00
13198;DHT22;6664;52.514;13.440;2023-05-10T16:26:58;25.90;1.00
13198;DHT22;6664;52.514;13.440;2023-05-10T16:29:46;25.20;1.00
13198;DHT22;6664;52.514;13.440;2023-05-10T16:32:31;25.10;1.00
13198;DHT22;6664;52.514;13.440;2023-05-10T16:35:17;24.70;1.00
13198;DHT22;6664;52.514;13.440;2023-05-10T16:38:03;24.70;1.00
13198;DHT22;6664;52.514;13.440;2023-05-10T16:40:48;24.80;1.00
13198;DHT22;6664;52.514;13.440;2023-05-10T16:43:34;25.10;1.00
13198;DHT22;6664;52.514;13.440;2023-05-10T16:46:19;25.10;1.00
13198;DHT22;6664;52.514;13.440;2023-05-10T16:49:05;24.90;1.00
13198;DHT22;6664;52.514;13.440;2023-05-10T16:51:54;24.40;1.00
13198;DHT22;6664;52.514;13.440;2023-05-10T16:54:39;24.10;1.00
13198;DHT22;6664;52.514;13.440;2023-05-10T16:57:29;23.50;1.00
13198;DHT22;6664;52.514;13.440;2023-05-10T17:00:15;23.00;1.00
13198;DHT22;6664;52.514;13.440;2023-05-10T17:03:03;22.50;1.00
13198;DHT22;6664;52.514;13.440;2023-05-10T17:05:49;22.20;1.00
13198;DHT22;6664;52.514;13.440;2023-05-10T17:08:35;21.90;1.00
13198;DHT22;6664;52.514;13.440;2023-05-10T17:11:23;21.40;1.00
13198;DHT22;6664;52.514;13.440;2023-05-10T17:14:08;21.20;1.00
13198;DHT22;6664;52.514;13.440;2023-05-10T17:16:54;21.20;1.00
13198;DHT22;6664;52.514;13.440;2023-05-10T17:19:40;20.90;1.00
13198;DHT22;6664;52.514;13.440;2023-05-10T17:22:29;20.70;1.00
13198;DHT22;6664;52.514;13.440;2023-05-10T17:25:14;20.60;1.60
13198;DHT22;6664;52.514;13.440;2023-05-10T17:28:02;20.40;2.00
13198;DHT22;6664;52.514;13.440;2023-05-10T17:30:54;20.20;2.80
13198;DHT22;6664;52.514;13.440;2023-05-10T17:33:40;20.00;3.50
13198;DHT22;6664;52.514;13.440;2023-05-10T17:36:26;19.80;4.30
13198;DHT22;6664;52.514;13.440;2023-05-10T17:39:14;19.70;5.20
13198;DHT22;6664;52.514;13.440;2023-05-10T17:42:00;19.50;6.10
13198;DHT22;6664;52.514;13.440;2023-05-10T17:44:46;19.30;7.00
13198;DHT22;6664;52.514;13.440;2023-05-10T17:47:33;19.20;7.60
13198;DHT22;6664;52.514;13.440;2023-05-10T17:50:19;19.20;7.80
13198;DHT22;6664;52.514;13.440;2023-05-10T17:53:04;19.10;8.10
13198;DHT22;6664;52.514;13.440;2023-05-10T17:55:50;19.00;8.70
13198;DHT22;6664;52.514;13.440;2023-05-10T17:58:37;18.90;9.50
13198;DHT22;6664;52.514;13.440;2023-05-10T18:01:22;18.70;9.80
13198;DHT22;6664;52.514;13.440;2023-05-10T18:04:08;18.60;9.80
13198;DHT22;6664;52.514;13.440;2023-05-10T18:06:54;18.50;10.50
13198;DHT22;6664;52.514;13.440;2023-05-10T18:09:45;18.40;10.60
13198;DHT22;6664;52.514;13.440;2023-05-10T18:12:34;18.30;11.10
13198;DHT22;6664;52.514;13.440;2023-05-10T18:15:20;18.20;11.40
13198;DHT22;6664;52.514;13.440;2023-05-10T18:18:06;18.10;11.50
13198;DHT22;6664;52.514;13.440;2023-05-10T18:20:52;18.10;11.50
13198;DHT22;6664;52.514;13.440;2023-05-10T18:23:41;18.00;11.80
13198;DHT22;6664;52.514;13.440;2023-05-10T18:26:29;18.00;12.20
13198;DHT22;6664;52.514;13.440;2023-05-10T18:29:15;17.80;12.70